Time;durP1;ratioP1;P1;durP2;ratioP2;P2;SDS_P1;SDS_P2;PMS_P1;PMS_P2;Temp;Humidity;BMP_temperature;BMP_pressure;BME280_temperature;BME280_humidity;BME280_pressure;Samples;Min_cycle;Max_cycle;Signal;HPM_P1;HPM_P2
2022/03/24 00:00:08;;;;;;;21.00;8.00;;;;;;;3.18;100.00;61143.88;5092849;28;20441;-72
2022/03/24 00:02:35;;;;;;;21.97;9.53;;;;;;;2.76;100.00;61101.75;5092824;28;20503;-71
2022/03/24 00:05:02;;;;;;;16.63;7.90;;;;;;;3.03;100.00;61130.44;5092512;28;20528;-71
2022/03/24 00:07:29;;;;;;;17.67;7.70;;;;;;;3.23;100.00;61149.16;5092201;28;20449;-71
2022/03/24 00:09:56;;;;;;;18.30;7.77;;;;;;;3.16;100.00;61149.28;5092568;28;20936;-70
2022/03/24 00:12:24;;;;;;;16.87;6.93;;;;;;;3.25;100.00;61154.34;5092610;28;20434;-71
2022/03/24 00:14:51;;;;;;;20.03;7.67;;;;;;;3.24;100.00;61153.28;5092154;28;21002;-71
2022/03/24 00:17:18;;;;;;;22.47;7.33;;;;;;;3.25;100.00;61153.81;5092506;28;20872;-73
2022/03/24 00:19:44;;;;;;;16.07;7.73;;;;;;;3.23;100.00;61151.69;5092915;28;20445;-72
2022/03/24 00:22:12;;;;;;;16.50;7.63;;;;;;;3.22;100.00;61150.63;5092305;28;20438;-71
2022/03/24 00:24:39;;;;;;;13.80;5.83;;;;;;;3.45;100.00;61175.06;5092061;28;20477;-71
2022/03/24 00:27:08;;;;;;;15.90;5.63;;;;;;;3.35;100.00;61159.41;5090848;28;20504;-71
2022/03/24 00:29:37;;;;;;;14.27;5.87;;;;;;;3.39;100.00;61173.72;5093107;28;20516;-71
2022/03/24 00:32:05;;;;;;;11.20;5.50;;;;;;;3.31;100.00;61162.72;5092340;28;20445;-70
2022/03/24 00:34:32;;;;;;;11.93;5.37;;;;;;;3.35;100.00;61164.97;5092468;28;20468;-72
2022/03/24 00:36:58;;;;;;;16.20;6.37;;;;;;;3.21;100.00;61150.09;5092184;28;20960;-71
2022/03/24 00:39:26;;;;;;;15.30;6.60;;;;;;;3.24;100.00;61157.78;5092292;28;20500;-71
2022/03/24 00:41:53;;;;;;;16.00;7.70;;;;;;;3.06;100.00;61134.13;5092080;28;20434;-70
2022/03/24 00:44:21;;;;;;;26.87;8.93;;;;;;;2.88;100.00;61117.53;5091820;28;20999;-71
2022/03/24 00:46:49;;;;;;;26.97;10.50;;;;;;;2.82;100.00;61105.59;5092316;28;20904;-70
2022/03/24 00:49:15;;;;;;;24.37;10.80;;;;;;;2.48;100.00;61073.03;5092366;28;20849;-72
2022/03/24 00:51:42;;;;;;;23.83;11.23;;;;;;;2.36;100.00;61060.31;5091789;28;20498;-70
2022/03/24 00:54:09;;;;;;;27.53;11.47;;;;;;;2.19;100.00;61039.75;5092580;28;20433;-71
2022/03/24 00:56:36;;;;;;;29.07;14.17;;;;;;;1.94;100.00;61015.16;5092586;28;20858;-70
2022/03/24 00:59:03;;;;;;;40.17;15.63;;;;;;;1.79;100.00;61002.28;5091966;28;20438;-71
2022/03/24 01:01:30;;;;;;;34.73;15.13;;;;;;;1.66;100.00;60985.97;5092040;28;20445;-71
2022/03/24 01:03:59;;;;;;;39.53;17.13;;;;;;;1.62;100.00;60982.25;5091891;28;20453;-71
2022/03/24 01:06:26;;;;;;;37.90;17.27;;;;;;;1.54;100.00;60968.75;5092140;28;20492;-71
2022/03/24 01:08:53;;;;;;;36.50;17.27;;;;;;;1.41;100.00;60961.97;5091973;28;20444;-73
2022/03/24 01:11:21;;;;;;;40.77;18.13;;;;;;;1.24;100.00;60941.94;5092048;28;20434;-71
2022/03/24 01:13:49;;;;;;;46.13;20.23;;;;;;;1.05;100.00;60918.75;5091832;28;20434;-71
2022/03/24 01:16:16;;;;;;;45.63;20.50;;;;;;;1.02;100.00;60918.06;5092029;28;20437;-72
2022/03/24 01:18:43;;;;;;;41.07;18.27;;;;;;;0.50;100.00;60859.00;5095585;28;20441;-72
2022/03/24 01:21:12;;;;;;;41.83;19.23;;;;;;;0.53;100.00;60867.19;5103001;28;20491;-71
2022/03/24 01:23:39;;;;;;;45.23;18.63;;;;;;;0.41;100.00;60853.91;5095687;28;20459;-71
2022/03/24 01:26:05;;;;;;;44.40;19.37;;;;;;;0.19;100.00;60831.13;5096017;28;20534;-70
2022/03/24 01:28:34;;;;;;;41.73;16.80;;;;;;;0.26;100.00;60838.03;5095200;28;20911;-72
2022/03/24 01:31:01;;;;;;;38.20;17.73;;;;;;;0.23;100.00;60835.38;5095637;28;20504;-72
2022/03/24 01:33:28;;;;;;;41.87;17.67;;;;;;;0.19;100.00;60826.13;5095630;28;20442;-72
2022/03/24 01:35:55;;;;;;;38.07;16.67;;;;;;;-0.05;100.00;60806.25;5095517;28;20441;-72
2022/03/24 01:38:24;;;;;;;52.40;18.50;;;;;;;-0.02;100.00;60809.41;5095285;28;20511;-70
2022/03/24 01:40:51;;;;;;;46.80;17.60;;;;;;;-0.32;100.00;60777.13;5095494;28;20438;-70
2022/03/24 01:43:19;;;;;;;40.10;17.27;;;;;;;-0.26;100.00;60784.00;5095381;28;20490;-72
2022/03/24 01:45:46;;;;;;;48.47;16.73;;;;;;;-0.14;100.00;60793.69;5095395;28;20472;-71
2022/03/24 01:48:14;;;;;;;31.23;12.43;;;;;;;-0.32;100.00;60780.13;5095240;28;20975;-72
2022/03/24 01:50:41;;;;;;;28.50;12.27;;;;;;;-0.24;100.00;60780.59;5095259;28;20445;-72
2022/03/24 01:53:10;;;;;;;26.03;12.10;;;;;;;-0.13;100.00;60799.75;5095034;28;20861;-73
2022/03/24 01:55:39;;;;;;;30.67;12.73;;;;;;;-0.27;100.00;60782.41;5095003;28;20438;-71
2022/03/24 01:58:06;;;;;;;34.63;13.23;;;;;;;-0.78;100.00;60728.41;5095897;28;20486;-73
2022/03/24 02:00:34;;;;;;;25.53;12.03;;;;;;;-0.07;100.00;60801.09;5095027;28;20441;-70
2022/03/24 02:03:03;;;;;;;27.77;12.53;;;;;;;0.05;100.00;60816.31;5094865;28;21017;-70
2022/03/24 02:05:31;;;;;;;29.00;12.37;;;;;;;0.20;100.00;60832.22;5094855;28;20491;-71
2022/03/24 02:08:03;;;;;;;32.80;11.17;;;;;;;-1.24;100.00;60677.75;5094745;28;20437;-71
2022/03/24 02:10:31;;;;;;;28.07;11.47;;;;;;;-0.12;100.00;60795.81;5095036;28;20498;-72
2022/03/24 02:13:01;;;;;;;26.53;12.47;;;;;;;0.05;100.00;60816.31;5095416;28;20810;-72
2022/03/24 02:15:29;;;;;;;31.23;11.80;;;;;;;0.22;100.00;60829.31;5094861;28;20967;-72
2022/03/24 02:17:56;;;;;;;26.40;11.57;;;;;;;0.20;100.00;60834.19;5094496;28;20502;-71
2022/03/24 02:20:28;;;;;;;26.93;11.63;;;;;;;0.26;100.00;60836.06;5094413;28;20544;-71
2022/03/24 02:22:56;;;;;;;32.07;13.40;;;;;;;0.26;100.00;60833.03;5095405;28;20437;-72
2022/03/24 02:25:25;;;;;;;30.97;12.50;;;;;;;0.33;100.00;60848.47;5094414;28;20522;-72
2022/03/24 02:27:55;;;;;;;33.97;13.53;;;;;;;0.25;100.00;60834.47;5094763;28;20485;-70
2022/03/24 02:30:24;;;;;;;36.43;18.57;;;;;;;0.17;100.00;60824.00;5093127;28;20473;-72
2022/03/24 02:32:52;;;;;;;43.03;21.77;;;;;;;0.21;100.00;60833.25;5094155;28;20506;-72
2022/03/24 02:35:19;;;;;;;40.03;20.67;;;;;;;0.24;100.00;60836.44;5094747;28;20441;-73
2022/03/24 02:37:45;;;;;;;36.43;18.30;;;;;;;0.29;100.00;60836.72;5094289;28;20510;-73
2022/03/24 02:40:14;;;;;;;34.90;16.80;;;;;;;0.36;100.00;60846.66;5094255;28;21024;-70
2022/03/24 02:42:41;;;;;;;35.80;16.83;;;;;;;0.45;100.00;60858.16;5094220;28;20436;-71
2022/03/24 02:45:10;;;;;;;37.17;16.93;;;;;;;0.52;100.00;60866.13;5093883;28;20932;-70
2022/03/24 02:47:38;;;;;;;40.20;16.53;;;;;;;0.15;100.00;60826.91;5094214;28;20445;-70
2022/03/24 02:50:06;;;;;;;34.13;16.13;;;;;;;0.51;100.00;60864.53;5094205;28;20450;-71
2022/03/24 02:52:33;;;;;;;34.13;14.83;;;;;;;0.35;100.00;60850.59;5094382;28;20511;-70
2022/03/24 02:55:00;;;;;;;37.47;15.97;;;;;;;0.36;100.00;60849.16;5093937;28;20430;-71
2022/03/24 02:57:30;;;;;;;29.37;14.07;;;;;;;0.35;100.00;60848.09;5093811;28;20441;-72
2022/03/24 02:59:57;;;;;;;30.33;13.93;;;;;;;0.40;100.00;60855.91;5094220;28;20810;-71
2022/03/24 03:02:24;;;;;;;30.83;13.67;;;;;;;0.44;100.00;60852.09;5093758;28;20441;-72
2022/03/24 03:04:53;;;;;;;26.30;13.57;;;;;;;0.51;100.00;60862.56;5093723;28;20457;-71
2022/03/24 03:07:21;;;;;;;24.43;11.53;;;;;;;0.58;100.00;60875.00;5093823;28;20534;-71
2022/03/24 03:09:48;;;;;;;29.27;14.33;;;;;;;0.40;100.00;60850.38;5093611;28;20524;-70
2022/03/24 03:12:16;;;;;;;33.73;14.83;;;;;;;0.62;100.00;60874.22;5093418;28;20567;-71
2022/03/24 03:14:47;;;;;;;24.83;12.57;;;;;;;0.69;100.00;60884.13;5093140;28;20816;-72
2022/03/24 03:17:16;;;;;;;32.10;13.33;;;;;;;-0.24;100.00;60788.09;5093880;28;20958;-72
2022/03/24 03:19:45;;;;;;;30.60;13.33;;;;;;;0.64;100.00;60881.34;5093377;28;20448;-71
2022/03/24 03:22:12;;;;;;;35.27;14.67;;;;;;;0.68;100.00;60880.59;5093283;28;21021;-72
2022/03/24 03:24:40;;;;;;;30.03;13.10;;;;;;;0.64;100.00;60878.31;5093433;28;20947;-72
2022/03/24 03:27:08;;;;;;;26.20;11.33;;;;;;;0.75;100.00;60889.97;5093326;28;20491;-72
2022/03/24 03:29:35;;;;;;;25.20;11.03;;;;;;;0.71;100.00;60886.25;5093624;28;20448;-71
2022/03/24 03:32:04;;;;;;;30.87;12.80;;;;;;;0.74;100.00;60888.91;5093514;28;20499;-72
2022/03/24 03:34:31;;;;;;;26.73;11.47;;;;;;;0.71;100.00;60886.25;5093283;28;20450;-70
2022/03/24 03:37:00;;;;;;;25.50;10.73;;;;;;;0.61;100.00;60875.66;5093114;28;20445;-72
2022/03/24 03:39:29;;;;;;;29.50;13.43;;;;;;;0.66;100.00;60875.41;5092858;28;20437;-71
2022/03/24 03:41:55;;;;;;;30.70;11.93;;;;;;;0.59;100.00;60868.53;5093048;28;20459;-72
2022/03/24 03:44:23;;;;;;;31.90;11.83;;;;;;;0.61;100.00;60878.16;5093274;28;20791;-71
2022/03/24 03:46:52;;;;;;;30.13;11.63;;;;;;;0.58;100.00;60871.94;5093143;28;20484;-73
2022/03/24 03:49:22;;;;;;;40.27;13.07;;;;;;;0.53;100.00;60866.63;5092902;28;20441;-72
2022/03/24 03:51:50;;;;;;;37.07;13.23;;;;;;;0.19;100.00;60831.13;5092724;28;20442;-71
2022/03/24 03:54:17;;;;;;;39.10;13.50;;;;;;;-0.32;100.00;60777.13;5093255;28;20434;-71
2022/03/24 03:56:43;;;;;;;30.87;12.50;;;;;;;-0.80;100.00;60726.31;5092785;28;20445;-70
2022/03/24 03:59:10;;;;;;;46.03;14.07;;;;;;;0.03;100.00;60809.19;5092726;28;20863;-71
2022/03/24 04:01:37;;;;;;;37.93;13.93;;;;;;;0.03;100.00;60816.16;5092588;28;20437;-71
2022/03/24 04:04:12;;;;;;;34.13;13.73;;;;;;;-0.04;100.00;60804.28;5092370;28;20461;-72
2022/03/24 04:06:41;;;;;;;33.63;14.07;;;;;;;-0.26;100.00;60783.47;5092650;28;20994;-71
2022/03/24 04:09:08;;;;;;;38.47;14.30;;;;;;;-0.27;100.00;60777.41;5092477;28;20467;-72
2022/03/24 04:11:36;;;;;;;35.57;13.27;;;;;;;-0.35;100.00;60773.94;5092754;28;20521;-71
2022/03/24 04:14:03;;;;;;;38.47;14.70;;;;;;;-0.41;100.00;60770.63;5092365;28;20434;-71
2022/03/24 04:16:30;;;;;;;36.73;14.10;;;;;;;-0.31;100.00;60778.72;5092632;28;20499;-71
2022/03/24 04:18:57;;;;;;;38.33;15.60;;;;;;;-0.29;100.00;60780.81;5092264;28;20940;-71
2022/03/24 04:21:24;;;;;;;37.67;15.00;;;;;;;-0.26;100.00;60780.97;5092223;28;20532;-72
2022/03/24 04:23:52;;;;;;;33.27;14.47;;;;;;;-0.32;100.00;60777.13;5092091;28;20518;-72
2022/03/24 04:26:19;;;;;;;30.07;14.67;;;;;;;-0.38;100.00;60771.28;5091903;28;20563;-72
2022/03/24 04:28:45;;;;;;;42.50;17.07;;;;;;;-0.59;100.00;60744.06;5092528;28;20466;-72
2022/03/24 04:31:12;;;;;;;46.87;16.47;;;;;;;-0.37;100.00;60771.81;5092448;28;20450;-71
2022/03/24 04:33:39;;;;;;;36.97;17.10;;;;;;;-0.46;100.00;60762.28;5092046;28;20896;-71
2022/03/24 04:36:08;;;;;;;45.90;20.10;;;;;;;-0.35;100.00;60773.94;5092011;28;20483;-71
2022/03/24 04:38:37;;;;;;;51.70;23.77;;;;;;;-0.30;100.00;60779.75;5092038;28;20490;-71
2022/03/24 04:41:06;;;;;;;46.43;21.30;;;;;;;-1.44;100.00;60659.09;5092884;28;20461;-71
2022/03/24 04:43:34;;;;;;;54.33;20.23;;;;;;;-0.31;100.00;60778.16;5092396;28;20446;-71
2022/03/24 04:46:00;;;;;;;42.47;18.87;;;;;;;-0.41;100.00;60763.13;5091919;28;20480;-71
2022/03/24 04:48:27;;;;;;;50.40;19.07;;;;;;;-0.33;100.00;60773.56;5091855;28;20503;-71
2022/03/24 04:50:54;;;;;;;48.60;18.63;;;;;;;-0.50;100.00;60753.06;5091893;28;20438;-70
2022/03/24 04:53:21;;;;;;;47.27;17.77;;;;;;;-0.36;100.00;60767.88;5091675;28;20446;-72
2022/03/24 04:55:48;;;;;;;56.23;17.43;;;;;;;-0.44;100.00;60761.91;5091919;28;21009;-71
2022/03/24 04:58:16;;;;;;;49.83;20.83;;;;;;;-0.58;100.00;60750.09;5092182;28;20870;-74
2022/03/24 05:00:44;;;;;;;55.23;22.87;;;;;;;-0.59;100.00;60751.03;5091749;28;20446;-72
2022/03/24 05:03:11;;;;;;;49.73;21.30;;;;;;;-0.34;100.00;60775.53;5091718;28;20460;-74
2022/03/24 05:05:38;;;;;;;57.60;22.40;;;;;;;-0.07;100.00;60801.09;5091833;28;20515;-74
2022/03/24 05:08:05;;;;;;;50.97;19.70;;;;;;;0.05;100.00;60818.81;5091891;28;20449;-74
2022/03/24 05:10:32;;;;;;;28.30;15.23;;;;;;;-0.81;100.00;60725.22;5091621;28;20445;-73
2022/03/24 05:13:00;;;;;;;54.17;18.20;;;;;;;0.18;100.00;60830.09;5091878;28;20514;-73
2022/03/24 05:15:28;;;;;;;33.83;14.53;;;;;;;0.45;100.00;60860.66;5091336;28;20503;-71
2022/03/24 05:17:55;;;;;;;41.77;15.27;;;;;;;0.54;100.00;60868.25;5091600;28;20438;-72
2022/03/24 05:20:23;;;;;;;40.80;17.30;;;;;;;0.49;100.00;60860.44;5091745;28;20441;-71
2022/03/24 05:22:50;;;;;;;47.57;20.57;;;;;;;0.38;100.00;60843.78;5091824;28;20433;-71
2022/03/24 05:25:18;;;;;;;56.27;22.53;;;;;;;0.62;100.00;60874.22;5091739;28;20464;-73
2022/03/24 05:27:45;;;;;;;50.63;20.87;;;;;;;0.71;100.00;60888.22;5091420;28;20554;-71
2022/03/24 05:30:13;;;;;;;76.67;32.13;;;;;;;0.33;100.00;60845.44;5091511;28;20480;-70
2022/03/24 05:32:42;;;;;;;58.07;23.03;;;;;;;1.25;100.00;60945.00;5091478;28;20449;-70
2022/03/24 05:35:09;;;;;;;51.37;21.13;;;;;;;1.41;100.00;60957.47;5090406;28;20442;-71
2022/03/24 05:37:37;;;;;;;65.90;22.57;;;;;;;1.12;100.00;60929.22;5090171;28;20430;-71
2022/03/24 05:40:04;;;;;;;90.47;41.97;;;;;;;1.09;100.00;60920.50;5092043;28;20499;-71
2022/03/24 05:42:31;;;;;;;79.13;35.70;;;;;;;1.85;100.00;61006.16;5091384;28;20441;-72
2022/03/24 05:44:58;;;;;;;91.83;31.27;;;;;;;1.91;100.00;61012.53;5091993;28;20450;-72
2022/03/24 05:47:25;;;;;;;67.40;22.67;;;;;;;2.18;100.00;61043.69;5091154;28;20473;-71
2022/03/24 05:49:54;;;;;;;44.67;16.17;;;;;;;1.84;100.00;61004.53;5091286;28;20503;-72
2022/03/24 05:52:22;;;;;;;34.27;14.03;;;;;;;2.11;100.00;61028.19;5091236;28;20868;-72
2022/03/24 05:54:49;;;;;;;46.73;14.10;;;;;;;2.18;100.00;61036.16;5091341;28;20448;-72
2022/03/24 05:57:16;;;;;;;46.57;17.10;;;;;;;1.88;100.00;60999.28;5090866;28;20465;-70
2022/03/24 05:59:43;;;;;;;41.03;16.77;;;;;;;2.52;100.00;61077.28;5091283;28;20511;-72
2022/03/24 06:02:10;;;;;;;47.47;19.30;;;;;;;2.62;100.00;61086.88;5091099;28;20472;-72
2022/03/24 06:04:40;;;;;;;56.80;23.97;;;;;;;2.86;100.00;61107.34;5091622;28;20462;-72
2022/03/24 06:07:10;;;;;;;56.67;22.40;;;;;;;3.18;100.00;61146.38;5094207;28;20499;-72
2022/03/24 06:09:39;;;;;;;46.87;17.87;;;;;;;3.43;100.00;61172.94;5094681;28;20877;-71
2022/03/24 06:12:10;;;;;;;42.70;16.77;;;;;;;3.73;100.00;61206.84;5094572;28;20437;-70
2022/03/24 06:14:37;;;;;;;43.67;15.60;;;;;;;3.68;100.00;61202.06;5094856;28;20437;-71
2022/03/24 06:17:05;;;;;;;61.10;20.27;;;;;;;3.85;100.00;61220.16;5095034;28;20505;-71
2022/03/24 06:19:33;;;;;;;65.97;22.17;;;;;;;3.75;100.00;61206.44;5094533;28;20784;-71
2022/03/24 06:22:01;;;;;;;30.93;12.50;;;;;;;3.75;100.00;61206.97;5094388;28;20883;-72
2022/03/24 06:24:30;;;;;;;23.23;11.10;;;;;;;4.04;100.00;61237.84;5094522;28;20442;-70
2022/03/24 06:26:58;;;;;;;40.77;12.60;;;;;;;4.07;100.00;61238.50;5094339;28;20951;-71
2022/03/24 06:29:25;;;;;;;38.80;13.13;;;;;;;4.13;100.00;61247.41;5095088;28;20527;-71
2022/03/24 06:31:52;;;;;;;38.23;14.83;;;;;;;4.69;100.00;61305.97;5094284;28;20465;-71
2022/03/24 06:34:19;;;;;;;37.70;15.20;;;;;;;5.01;100.00;61340.06;5094299;28;21006;-73
2022/03/24 06:36:46;;;;;;;45.30;14.87;;;;;;;5.19;100.00;61358.69;5094398;28;20849;-71
2022/03/24 06:39:13;;;;;;;48.03;18.37;;;;;;;5.18;100.00;61360.69;5094298;28;20506;-71
2022/03/24 06:41:41;;;;;;;49.53;18.03;;;;;;;5.57;100.00;61399.72;5094166;28;20943;-71
2022/03/24 06:44:08;;;;;;;45.43;18.40;;;;;;;5.51;100.00;61388.28;5094730;28;20430;-72
2022/03/24 06:46:35;;;;;;;41.17;17.57;;;;;;;5.94;100.00;61436.09;5094133;28;20919;-72
2022/03/24 06:49:03;;;;;;;42.47;17.20;;;;;;;6.42;100.00;61489.31;5093967;28;20434;-71
2022/03/24 06:51:30;;;;;;;40.20;18.43;;;;;;;6.66;100.00;61515.44;5094065;28;20442;-71
2022/03/24 06:53:57;;;;;;;45.67;17.80;;;;;;;6.80;100.00;61529.84;5093946;28;20429;-73
2022/03/24 06:56:24;;;;;;;52.50;18.37;;;;;;;7.08;100.00;61561.72;5093835;28;20442;-70
2022/03/24 06:58:52;;;;;;;51.23;17.03;;;;;;;7.34;100.00;61587.50;5093848;28;20499;-71
2022/03/24 07:01:21;;;;;;;38.47;17.30;;;;;;;7.63;100.00;61618.44;5093901;28;20499;-72
2022/03/24 07:03:48;;;;;;;44.07;17.07;;;;;;;7.62;100.00;61612.31;5093395;28;20476;-72
2022/03/24 07:06:14;;;;;;;40.80;16.20;;;;;;;7.93;100.00;61644.38;5093738;28;20791;-71
2022/03/24 07:08:41;;;;;;;38.17;16.30;;;;;;;8.20;100.00;61676.28;5093498;28;21025;-72
2022/03/24 07:11:09;;;;;;;38.60;17.00;;;;;;;8.47;100.00;61702.09;5093597;28;21029;-70
2022/03/24 07:13:35;;;;;;;41.03;17.50;;;;;;;8.60;100.00;61723.59;5093427;28;20448;-71
2022/03/24 07:16:04;;;;;;;41.87;16.97;;;;;;;8.28;97.10;61684.31;5093112;28;20434;-71
2022/03/24 07:18:31;;;;;;;37.87;16.53;;;;;;;8.68;96.94;61724.53;5093504;28;20434;-71
2022/03/24 07:20:58;;;;;;;57.37;21.13;;;;;;;8.88;92.92;61751.00;5093519;28;20456;-70
2022/03/24 07:23:25;;;;;;;50.73;18.20;;;;;;;9.19;89.85;61784.16;5093302;28;21034;-71
2022/03/24 07:25:51;;;;;;;41.67;16.80;;;;;;;9.43;84.76;61808.75;5093480;28;20449;-72
2022/03/24 07:28:18;;;;;;;33.17;15.57;;;;;;;9.38;83.69;61804.47;5093108;28;20577;-72
2022/03/24 07:30:50;;;;;;;51.57;23.17;;;;;;;9.36;83.59;61799.81;5093722;28;20442;-71
2022/03/24 07:33:20;;;;;;;48.33;18.47;;;;;;;9.21;82.43;61785.75;5093089;28;20449;-71
2022/03/24 07:35:47;;;;;;;38.03;16.17;;;;;;;9.56;83.83;61820.16;5093185;28;20196;-71
2022/03/24 07:38:15;;;;;;;33.43;15.73;;;;;;;9.99;80.02;61868.69;5092765;28;20208;-70
2022/03/24 07:40:41;;;;;;;38.67;15.17;;;;;;;10.36;78.02;61902.72;5093211;28;20252;-71
2022/03/24 07:43:08;;;;;;;41.17;16.50;;;;;;;10.81;73.39;61954.00;5092046;28;20438;-71
2022/03/24 07:45:38;;;;;;;47.97;15.73;;;;;;;11.09;69.41;61988.06;5093705;28;20202;-70
2022/03/24 07:48:10;;;;;;;49.23;15.60;;;;;;;11.04;66.55;61981.22;5093221;28;20227;-71
2022/03/24 07:50:40;;;;;;;39.63;14.97;;;;;;;11.13;66.31;61989.78;5093471;28;20282;-72
2022/03/24 07:53:21;;;;;;;37.47;14.50;;;;;;;11.41;65.41;62014.69;5093336;28;20730;-72
2022/03/24 07:55:48;;;;;;;29.23;14.50;;;;;;;11.90;64.28;62067.25;5093091;28;20680;-71
2022/03/24 07:58:17;;;;;;;33.80;14.50;;;;;;;12.34;61.86;62122.13;5092493;28;20203;-71
2022/03/24 08:00:45;;;;;;;31.80;13.73;;;;;;;12.51;60.01;62132.19;5092696;28;20196;-71
2022/03/24 08:03:13;;;;;;;32.50;13.73;;;;;;;12.64;59.03;62146.13;5092455;28;20199;-71
2022/03/24 08:05:42;;;;;;;32.70;12.53;;;;;;;12.94;58.83;62183.44;5092119;28;20227;-72
2022/03/24 08:08:09;;;;;;;26.13;12.63;;;;;;;12.57;58.31;62141.72;5092546;28;20227;-73
2022/03/24 08:10:36;;;;;;;34.60;13.40;;;;;;;12.51;60.09;62137.81;5092397;28;20306;-71
2022/03/24 08:13:04;;;;;;;26.80;13.90;;;;;;;12.97;59.88;62186.13;5092523;28;20213;-72
2022/03/24 08:15:31;;;;;;;27.47;12.60;;;;;;;13.06;57.71;62193.25;5092319;28;20691;-71
2022/03/24 08:17:58;;;;;;;30.07;13.50;;;;;;;13.03;57.38;62188.00;5092397;28;20264;-71
2022/03/24 08:20:25;;;;;;;34.33;14.77;;;;;;;13.21;55.98;62209.38;5092248;28;20204;-72
2022/03/24 08:22:53;;;;;;;30.80;15.10;;;;;;;13.28;56.02;62214.84;5092026;28;20685;-72
2022/03/24 08:25:20;;;;;;;26.93;15.43;;;;;;;12.84;55.15;62172.19;5092127;28;20268;-72
2022/03/24 08:27:48;;;;;;;30.60;15.93;;;;;;;13.84;55.07;62279.63;5089965;28;20250;-72
2022/03/24 08:30:15;;;;;;;27.53;14.13;;;;;;;13.68;54.19;62257.31;5092188;28;20260;-72
2022/03/24 08:32:42;;;;;;;35.97;15.83;;;;;;;13.61;53.93;62247.22;5091934;28;20195;-71
2022/03/24 08:35:10;;;;;;;34.07;14.83;;;;;;;13.80;54.52;62275.31;5092146;28;20252;-71
2022/03/24 08:37:37;;;;;;;32.17;16.03;;;;;;;14.07;53.23;62306.91;5091820;28;20718;-71
2022/03/24 08:40:07;;;;;;;30.37;14.67;;;;;;;14.35;53.22;62334.47;5091919;28;20491;-71
2022/03/24 08:42:36;;;;;;;33.10;15.40;;;;;;;13.96;50.65;62292.53;5092038;28;20196;-72
2022/03/24 08:45:04;;;;;;;37.87;15.80;;;;;;;14.72;50.10;62368.03;5091826;28;20191;-71
2022/03/24 08:47:31;;;;;;;32.27;13.70;;;;;;;15.13;50.12;62417.28;5091885;28;20303;-72
2022/03/24 08:49:58;;;;;;;32.27;14.83;;;;;;;15.18;48.76;62417.53;5092396;28;20200;-70
2022/03/24 08:52:25;;;;;;;29.80;13.83;;;;;;;15.58;48.00;62460.59;5091792;28;20203;-72
2022/03/24 08:54:52;;;;;;;34.00;15.33;;;;;;;15.81;46.93;62487.94;5091488;28;20203;-72
2022/03/24 08:57:25;;;;;;;29.83;14.03;;;;;;;15.79;46.72;62482.69;5091798;28;20203;-72
2022/03/24 08:59:54;;;;;;;34.10;14.33;;;;;;;16.33;46.49;62542.88;5091781;28;20692;-71
2022/03/24 09:02:22;;;;;;;27.57;13.30;;;;;;;16.65;44.82;62577.38;5092336;28;20286;-71
2022/03/24 09:04:50;;;;;;;26.63;12.10;;;;;;;16.59;44.36;62573.47;5091599;28;20223;-71
2022/03/24 09:07:18;;;;;;;26.47;11.27;;;;;;;16.59;44.53;62568.31;5091482;28;20234;-72
2022/03/24 09:09:45;;;;;;;23.13;11.03;;;;;;;16.79;43.99;62589.88;5091681;28;20261;-71
2022/03/24 09:12:13;;;;;;;25.87;8.37;;;;;;;16.95;43.80;62609.16;5091578;28;20203;-72
2022/03/24 09:14:42;;;;;;;21.20;9.07;;;;;;;17.09;43.26;62622.22;5091703;28;20215;-73
2022/03/24 09:17:10;;;;;;;17.10;9.23;;;;;;;17.11;42.56;62626.41;5091566;28;20257;-70
2022/03/24 09:19:37;;;;;;;18.07;9.57;;;;;;;17.07;43.59;62625.19;5091621;28;20195;-72
2022/03/24 09:22:05;;;;;;;26.70;10.03;;;;;;;17.36;42.87;62653.34;5091555;28;20203;-73
2022/03/24 09:24:33;;;;;;;21.00;9.07;;;;;;;17.49;42.25;62667.94;5091592;28;20196;-73
2022/03/24 09:26:59;;;;;;;21.33;8.17;;;;;;;17.58;41.99;62680.22;5091577;28;20207;-72
2022/03/24 09:29:27;;;;;;;21.73;9.07;;;;;;;16.61;42.03;62573.06;5091796;28;20243;-71
2022/03/24 09:31:56;;;;;;;21.43;8.67;;;;;;;17.94;41.45;62715.41;5091449;28;20679;-72
2022/03/24 09:34:25;;;;;;;17.83;9.30;;;;;;;18.37;40.96;62764.38;5090662;28;20258;-71
2022/03/24 09:36:52;;;;;;;16.67;8.43;;;;;;;18.52;39.76;62775.97;5091510;28;20204;-71
2022/03/24 09:39:19;;;;;;;16.13;9.37;;;;;;;18.23;39.69;62744.13;5093759;28;20238;-72
2022/03/24 09:41:47;;;;;;;15.83;7.83;;;;;;;18.14;39.35;62736.97;5095885;28;20227;-71
2022/03/24 09:44:15;;;;;;;19.80;8.13;;;;;;;18.30;38.93;62757.38;5095382;28;20345;-73
2022/03/24 09:46:43;;;;;;;21.17;8.30;;;;;;;18.21;39.19;62744.53;5095194;28;20249;-71
2022/03/24 09:49:12;;;;;;;15.97;7.53;;;;;;;18.14;38.46;62734.41;5095237;28;20227;-72
2022/03/24 09:51:40;;;;;;;18.57;6.93;;;;;;;17.68;37.81;62688.44;5095371;28;20655;-71
2022/03/24 09:54:10;;;;;;;14.87;7.50;;;;;;;17.96;38.29;62720.13;5095379;28;20281;-72
2022/03/24 09:56:37;;;;;;;17.43;8.07;;;;;;;18.59;37.15;62785.56;5094965;28;20199;-72
2022/03/24 09:59:07;;;;;;;20.67;6.90;;;;;;;18.70;35.80;62797.44;5094445;28;20284;-71
2022/03/24 10:01:34;;;;;;;10.97;6.90;;;;;;;18.07;35.32;62729.97;5095228;28;20207;-72
2022/03/24 10:04:10;;;;;;;18.40;7.30;;;;;;;18.45;35.84;62773.03;5094860;28;20581;-72
2022/03/24 10:06:41;;;;;;;11.37;6.97;;;;;;;18.65;35.72;62791.50;5094611;28;20731;-72
2022/03/24 10:09:09;;;;;;;11.17;6.83;;;;;;;18.82;34.87;62807.81;5094588;28;20242;-73
2022/03/24 10:11:36;;;;;;;12.77;6.90;;;;;;;18.50;34.24;62773.28;5093552;28;20210;-71
2022/03/24 10:14:05;;;;;;;11.23;6.70;;;;;;;18.82;34.02;62810.41;5094781;28;20603;-72
2022/03/24 10:16:43;;;;;;;11.07;6.47;;;;;;;19.08;33.34;62841.06;5094774;28;20257;-73
2022/03/24 10:19:13;;;;;;;10.80;6.40;;;;;;;19.09;33.77;62842.16;5094960;28;20298;-71
2022/03/24 10:21:44;;;;;;;15.03;6.50;;;;;;;18.75;33.32;62802.31;5094529;28;20278;-71
2022/03/24 10:24:13;;;;;;;11.30;6.40;;;;;;;18.49;33.55;62777.38;5095065;28;20200;-73
2022/03/24 10:26:45;;;;;;;11.27;6.80;;;;;;;18.77;33.72;62807.59;5094930;28;20203;-72
2022/03/24 10:29:14;;;;;;;15.40;6.60;;;;;;;18.78;33.42;62800.91;5094430;28;20242;-72
2022/03/24 10:31:43;;;;;;;18.53;5.93;;;;;;;18.87;33.03;62815.25;5094386;28;20272;-73
2022/03/24 10:34:11;;;;;;;12.67;6.40;;;;;;;18.98;33.36;62830.25;5094489;28;20197;-73
2022/03/24 10:36:41;;;;;;;16.07;6.27;;;;;;;19.83;33.18;62918.44;5094177;28;20249;-73
2022/03/24 10:39:09;;;;;;;11.27;6.63;;;;;;;19.57;32.55;62893.47;5094206;28;20276;-71
2022/03/24 10:41:39;;;;;;;13.90;7.13;;;;;;;19.80;31.68;62917.81;5094096;28;20283;-70
2022/03/24 10:44:08;;;;;;;12.80;6.70;;;;;;;19.69;32.08;62908.50;5094105;28;20587;-72
2022/03/24 10:46:37;;;;;;;10.93;6.30;;;;;;;19.50;32.05;62885.91;5094078;28;20202;-72
2022/03/24 10:49:16;;;;;;;13.27;6.83;;;;;;;19.56;32.55;62889.81;5093726;28;20285;-72
2022/03/24 10:51:44;;;;;;;16.67;7.00;;;;;;;20.07;32.76;62944.41;5093212;28;20588;-70
2022/03/24 10:54:22;;;;;;;12.73;6.30;;;;;;;20.35;31.52;62979.31;5093920;28;20655;-71
2022/03/24 10:56:56;;;;;;;8.90;5.67;;;;;;;19.97;31.23;62931.00;5093713;28;20206;-72
2022/03/24 10:59:29;;;;;;;14.23;6.60;;;;;;;19.68;31.83;62904.84;5093646;28;20269;-71
2022/03/24 11:01:56;;;;;;;14.57;6.77;;;;;;;20.43;31.60;62985.94;5092398;28;20271;-73
2022/03/24 11:04:23;;;;;;;11.10;6.23;;;;;;;20.39;31.03;62981.06;5093324;28;20223;-71
2022/03/24 11:06:51;;;;;;;15.67;6.77;;;;;;;20.75;31.35;63017.94;5093461;28;20276;-73
2022/03/24 11:09:34;;;;;;;12.23;6.47;;;;;;;21.16;30.72;63058.66;5092194;28;20584;-72
2022/03/24 11:12:26;;;;;;;20.07;6.13;;;;;;;21.47;30.44;63097.41;5093627;28;20199;-73
2022/03/24 11:14:56;;;;;;;11.20;6.37;;;;;;;22.20;30.08;63175.91;5093437;28;20302;-72
2022/03/24 11:17:25;;;;;;;10.77;6.13;;;;;;;22.41;29.33;63196.63;5093415;28;20203;-72
2022/03/24 11:19:58;;;;;;;11.30;6.40;;;;;;;22.28;28.82;63185.13;5093313;28;20368;-71
2022/03/24 11:22:34;;;;;;;9.13;5.73;;;;;;;21.62;28.69;63114.16;5093898;28;20207;-72